createdAt,value
2023-02-14T00:01:50.439Z,87.42
2023-02-14T00:04:21.031Z,87.27
2023-02-14T00:06:51.823Z,87.53
2023-02-14T00:09:21.910Z,88.09
2023-02-14T00:11:52.431Z,88.37
2023-02-14T00:14:22.643Z,88.09
2023-02-14T00:16:53.199Z,88.25
2023-02-14T00:19:23.411Z,88.08
2023-02-14T00:21:53.911Z,87.47
2023-02-14T00:24:24.763Z,87.28
2023-02-14T00:26:55.198Z,87.57
2023-02-14T00:29:25.640Z,88.25
2023-02-14T00:31:56.240Z,87.67
2023-02-14T00:34:26.451Z,87.55
2023-02-14T00:36:57.287Z,87.51
2023-02-14T00:39:27.939Z,87.86
2023-02-14T00:41:58.577Z,87.92
2023-02-14T00:44:28.788Z,87.30
2023-02-14T00:46:59.480Z,87.34
2023-02-14T00:49:30.347Z,88.40
2023-02-14T00:52:00.886Z,89.32
2023-02-14T00:54:30.908Z,95.69
2023-02-14T00:57:01.469Z,91.16
2023-02-14T00:59:31.661Z,87.41
2023-02-14T01:02:02.694Z,85.15
2023-02-14T01:04:32.819Z,84.55
2023-02-14T01:07:03.113Z,85.69
2023-02-14T01:09:33.764Z,87.18
2023-02-14T01:12:04.077Z,88.09
2023-02-14T01:14:34.405Z,88.40
2023-02-14T01:17:04.980Z,88.61
2023-02-14T01:19:35.107Z,88.88
2023-02-14T01:22:05.114Z,89.30
2023-02-14T01:24:35.678Z,89.79
2023-02-14T01:27:05.954Z,89.85
2023-02-14T01:29:36.566Z,89.36
2023-02-14T01:32:07.076Z,89.33
2023-02-14T01:34:37.071Z,89.68
2023-02-14T01:37:07.400Z,89.43
2023-02-14T01:39:37.947Z,89.13
2023-02-14T01:42:08.746Z,88.37
2023-02-14T01:44:39.473Z,88.10
2023-02-14T01:47:09.650Z,88.78
2023-02-14T01:49:40.168Z,89.83
2023-02-14T01:52:10.946Z,89.48
2023-02-14T01:54:40.794Z,88.30
2023-02-14T01:57:11.390Z,87.56
2023-02-14T01:59:41.402Z,88.71
2023-02-14T02:02:12.339Z,89.34
2023-02-14T02:04:43.048Z,89.48
2023-02-14T02:07:13.113Z,89.25
2023-02-14T02:09:43.571Z,89.45
2023-02-14T02:12:13.857Z,89.15
2023-02-14T02:14:43.875Z,89.37
2023-02-14T02:17:14.525Z,89.00
2023-02-14T02:19:44.699Z,88.82
2023-02-14T02:22:15.111Z,88.87
2023-02-14T02:24:45.785Z,88.95
2023-02-14T02:27:16.501Z,88.26
2023-02-14T02:29:47.305Z,87.80
2023-02-14T02:32:17.278Z,87.90
2023-02-14T02:34:47.580Z,87.88
2023-02-14T02:37:17.739Z,87.73
2023-02-14T02:39:48.231Z,87.67
2023-02-14T02:42:19.169Z,88.23
2023-02-14T02:44:49.602Z,88.86
2023-02-14T02:47:20.343Z,88.99
2023-02-14T02:49:51.071Z,97.29
2023-02-14T02:52:21.202Z,92.15
2023-02-14T02:54:51.705Z,90.02
2023-02-14T02:57:22.166Z,89.00
2023-02-14T02:59:52.694Z,88.41
2023-02-14T03:02:23.036Z,88.44
2023-02-14T03:04:53.450Z,88.54
2023-02-14T03:07:23.392Z,88.76
2023-02-14T03:09:53.554Z,89.34
2023-02-14T03:12:24.172Z,89.61
2023-02-14T03:14:54.522Z,90.10
2023-02-14T03:17:25.176Z,90.39
2023-02-14T03:19:55.463Z,90.85
2023-02-14T03:22:26.369Z,90.98
2023-02-14T03:24:56.661Z,90.99
2023-02-14T03:27:27.128Z,91.40
2023-02-14T03:29:57.216Z,91.05
2023-02-14T03:32:27.541Z,90.78
2023-02-14T03:34:57.588Z,90.60
2023-02-14T03:37:27.732Z,90.35
2023-02-14T03:39:58.149Z,90.13
2023-02-14T03:42:28.310Z,89.85
2023-02-14T03:44:59.169Z,90.01
2023-02-14T03:47:29.261Z,89.82
2023-02-14T03:49:59.526Z,89.91
2023-02-14T03:52:29.620Z,89.85
2023-02-14T03:55:00.209Z,89.60
2023-02-14T03:57:31.040Z,89.84
2023-02-14T04:00:01.369Z,89.64
2023-02-14T04:02:31.381Z,89.59
2023-02-14T04:05:01.407Z,89.69
2023-02-14T04:07:31.566Z,89.72
2023-02-14T04:10:01.939Z,89.11
2023-02-14T04:12:37.734Z,89.27
2023-02-14T04:15:02.943Z,89.32
2023-02-14T04:17:33.052Z,89.72
2023-02-14T04:20:03.234Z,90.00
2023-02-14T04:22:33.599Z,94.18
2023-02-14T04:25:03.911Z,91.63
2023-02-14T04:27:34.573Z,90.41
2023-02-14T04:30:05.125Z,89.66
2023-02-14T04:32:35.725Z,89.73
2023-02-14T04:35:05.689Z,89.87
2023-02-14T04:37:36.333Z,90.30
2023-02-14T04:40:06.601Z,90.75
2023-02-14T04:42:37.270Z,90.73
2023-02-14T04:45:07.356Z,90.83
2023-02-14T04:47:37.765Z,90.89
2023-02-14T04:50:08.385Z,90.88
2023-02-14T04:52:38.830Z,90.42
2023-02-14T04:55:09.060Z,89.82
2023-02-14T04:57:39.650Z,89.63
2023-02-14T05:00:10.447Z,88.64
2023-02-14T05:02:40.920Z,88.96
2023-02-14T05:05:11.437Z,89.24
2023-02-14T05:07:41.565Z,89.37
2023-02-14T05:10:11.916Z,88.91
2023-02-14T05:12:42.757Z,89.11
2023-02-14T05:15:13.137Z,88.72
2023-02-14T05:17:43.365Z,88.67
2023-02-14T05:20:13.240Z,88.08
2023-02-14T05:22:43.946Z,88.17
2023-02-14T05:25:13.960Z,87.55
2023-02-14T05:27:44.283Z,88.97
2023-02-14T05:30:14.671Z,89.96
2023-02-14T05:32:44.838Z,90.54
2023-02-14T05:35:15.237Z,94.80
2023-02-14T05:37:46.090Z,91.92
2023-02-14T05:40:16.781Z,89.19
2023-02-14T05:42:47.402Z,88.41
2023-02-14T05:45:18.007Z,88.44
2023-02-14T05:47:48.420Z,89.37
2023-02-14T05:50:18.936Z,89.31
2023-02-14T05:52:49.464Z,89.57
2023-02-14T05:55:19.853Z,89.78
2023-02-14T05:57:50.726Z,90.07
2023-02-14T06:00:21.338Z,90.24
2023-02-14T06:02:51.784Z,90.28
2023-02-14T06:05:21.891Z,90.20
2023-02-14T06:07:52.877Z,90.02
2023-02-14T06:10:23.245Z,89.81
2023-02-14T06:12:53.962Z,89.11
2023-02-14T06:15:24.451Z,89.18
2023-02-14T06:17:54.809Z,89.07
2023-02-14T06:20:25.080Z,89.17
2023-02-14T06:22:55.782Z,88.76
2023-02-14T06:25:26.148Z,88.77
2023-02-14T06:27:56.849Z,88.93
2023-02-14T06:30:27.377Z,88.93
2023-02-14T06:32:57.834Z,88.92
2023-02-14T06:35:28.171Z,89.05
2023-02-14T06:37:58.824Z,88.99
2023-02-14T06:40:29.685Z,89.34
2023-02-14T06:43:00.461Z,89.61
2023-02-14T06:45:31.153Z,98.91
2023-02-14T06:48:01.897Z,92.96
2023-02-14T06:50:32.802Z,89.89
2023-02-14T06:53:03.468Z,88.56
2023-02-14T06:55:33.575Z,88.08
2023-02-14T06:58:04.502Z,88.32
2023-02-14T07:00:35.130Z,88.68
2023-02-14T07:03:05.298Z,89.31
2023-02-14T07:05:35.631Z,89.96
2023-02-14T07:08:06.440Z,89.90
2023-02-14T07:10:36.418Z,90.23
2023-02-14T07:13:06.662Z,90.20
2023-02-14T07:15:37.375Z,90.53
2023-02-14T07:18:08.048Z,90.32
2023-02-14T07:20:38.394Z,90.41
2023-02-14T07:23:08.859Z,90.23
2023-02-14T07:25:39.599Z,90.10
2023-02-14T07:28:09.643Z,89.76
2023-02-14T07:30:40.078Z,89.82
2023-02-14T07:33:10.456Z,90.00
2023-02-14T07:35:41.125Z,90.05
2023-02-14T07:38:11.568Z,89.95
2023-02-14T07:40:41.645Z,90.69
2023-02-14T07:43:12.088Z,90.41
2023-02-14T07:45:42.099Z,90.47
2023-02-14T07:48:12.717Z,89.97
2023-02-14T07:50:42.628Z,90.46
2023-02-14T07:53:13.166Z,90.45
2023-02-14T07:55:43.403Z,90.73
2023-02-14T07:58:13.978Z,91.12
2023-02-14T08:00:44.189Z,91.45
2023-02-14T08:03:14.432Z,99.59
2023-02-14T08:05:45.116Z,95.51
2023-02-14T08:08:15.477Z,94.27
2023-02-14T08:10:46.133Z,93.30
2023-02-14T08:13:16.108Z,93.80
2023-02-14T08:15:46.933Z,94.53
2023-02-14T08:18:17.403Z,94.42
2023-02-14T08:20:47.696Z,95.16
2023-02-14T08:23:17.998Z,95.26
2023-02-14T08:25:48.776Z,95.78
2023-02-14T08:28:22.795Z,96.22
2023-02-14T08:30:50.169Z,96.23
2023-02-14T08:33:20.835Z,96.35
2023-02-14T08:35:51.273Z,96.59
2023-02-14T08:38:21.636Z,96.88
2023-02-14T08:40:51.717Z,96.81
2023-02-14T08:43:22.214Z,96.93
2023-02-14T08:45:52.676Z,96.78
2023-02-14T08:48:23.378Z,97.50
2023-02-14T08:50:53.619Z,97.78
2023-02-14T08:53:23.805Z,98.14
2023-02-14T08:55:54.701Z,97.45
2023-02-14T08:58:25.430Z,98.34
2023-02-14T09:00:56.218Z,97.54
2023-02-14T09:03:26.937Z,97.88
2023-02-14T09:05:57.077Z,97.68
2023-02-14T09:08:27.910Z,97.64
2023-02-14T09:10:58.228Z,98.83
2023-02-14T09:13:28.238Z,97.92
2023-02-14T09:15:58.778Z,98.40
2023-02-14T09:18:29.804Z,99.33
2023-02-14T09:21:00.505Z,100.00
2023-02-14T09:23:30.894Z,100.00
2023-02-14T09:26:01.130Z,100.00
2023-02-14T09:28:31.653Z,99.98
2023-02-14T09:31:01.969Z,100.00
2023-02-14T09:33:32.279Z,100.00
2023-02-14T09:36:02.334Z,99.45
2023-02-14T09:38:32.348Z,98.70
2023-02-14T09:41:02.823Z,98.95
2023-02-14T09:43:33.338Z,99.08
2023-02-14T09:46:03.816Z,98.64
2023-02-14T09:48:33.851Z,98.66
2023-02-14T09:51:04.602Z,98.29
2023-02-14T09:53:35.301Z,98.45
2023-02-14T09:56:06.061Z,98.56
2023-02-14T09:58:36.307Z,99.31
2023-02-14T10:01:06.814Z,99.03
2023-02-14T10:03:37.397Z,100.00
2023-02-14T10:06:07.425Z,100.00
2023-02-14T10:08:38.248Z,100.00
2023-02-14T10:11:09.064Z,99.84
2023-02-14T10:13:39.663Z,98.81
2023-02-14T10:16:10.190Z,98.10
2023-02-14T10:18:40.811Z,98.55
2023-02-14T10:21:11.602Z,97.47
2023-02-14T10:23:42.195Z,98.05
2023-02-14T10:26:13.046Z,95.92
2023-02-14T10:28:43.561Z,96.05
2023-02-14T10:31:14.308Z,95.66
2023-02-14T10:33:44.577Z,96.03
2023-02-14T10:36:15.238Z,95.64
2023-02-14T10:38:45.649Z,91.74
2023-02-14T10:41:16.075Z,92.97
2023-02-14T10:43:46.401Z,91.49
2023-02-14T10:46:18.082Z,91.80
2023-02-14T10:48:47.512Z,89.86
2023-02-14T10:51:17.546Z,88.30
2023-02-14T10:53:47.634Z,87.04
2023-02-14T10:56:18.352Z,89.41
2023-02-14T10:58:49.050Z,86.93
2023-02-14T11:01:19.466Z,86.22
2023-02-14T11:03:49.621Z,86.25
2023-02-14T11:06:20.029Z,87.18
2023-02-14T11:08:50.165Z,85.88
2023-02-14T11:11:20.627Z,84.54
2023-02-14T11:13:51.187Z,84.41
2023-02-14T11:16:21.934Z,83.01
2023-02-14T11:18:52.406Z,84.65
2023-02-14T11:21:22.595Z,83.02
2023-02-14T11:23:53.130Z,83.99
2023-02-14T11:26:23.958Z,83.59
2023-02-14T11:28:54.767Z,83.75
2023-02-14T11:31:24.908Z,83.78
2023-02-14T11:33:55.712Z,82.94
2023-02-14T11:36:25.760Z,83.79
2023-02-14T11:38:55.777Z,83.78
2023-02-14T11:41:26.151Z,83.85
2023-02-14T11:43:55.901Z,83.37
2023-02-14T11:46:26.666Z,82.86
2023-02-14T11:48:56.911Z,83.36
2023-02-14T11:51:29.863Z,83.23
2023-02-14T11:53:57.330Z,82.37
2023-02-14T11:56:27.482Z,83.35
2023-02-14T11:58:57.815Z,83.18
2023-02-14T12:01:28.017Z,82.53
2023-02-14T12:03:58.334Z,82.29
2023-02-14T12:06:28.540Z,81.81
2023-02-14T12:08:59.072Z,82.21
2023-02-14T12:11:28.963Z,82.55
2023-02-14T12:13:59.034Z,82.42
2023-02-14T12:16:29.854Z,81.44
2023-02-14T12:19:00.527Z,80.90
2023-02-14T12:21:31.306Z,82.49
2023-02-14T12:24:01.471Z,81.69
2023-02-14T12:26:31.769Z,81.34
2023-02-14T12:29:02.067Z,81.03
2023-02-14T12:31:32.993Z,81.69
2023-02-14T12:34:03.250Z,81.87
2023-02-14T12:36:33.514Z,82.08
2023-02-14T12:39:04.090Z,81.10
2023-02-14T12:41:34.298Z,81.21
2023-02-14T12:44:04.955Z,82.16
2023-02-14T12:46:35.209Z,81.92
2023-02-14T12:49:06.037Z,81.81
2023-02-14T12:51:36.127Z,82.69
2023-02-14T12:54:06.733Z,82.03
2023-02-14T12:56:37.093Z,81.34
2023-02-14T12:59:07.518Z,81.99
2023-02-14T13:01:39.363Z,82.53
2023-02-14T13:04:08.445Z,81.74
2023-02-14T13:06:38.680Z,81.30
2023-02-14T13:09:08.824Z,81.56
2023-02-14T13:11:39.143Z,81.96
2023-02-14T13:14:09.174Z,81.98
2023-02-14T13:16:39.554Z,82.43
2023-02-14T13:19:09.524Z,82.37
2023-02-14T13:21:40.132Z,83.05
2023-02-14T13:24:10.873Z,82.30
2023-02-14T13:26:41.325Z,82.32
2023-02-14T13:29:11.460Z,82.10
2023-02-14T13:31:42.206Z,82.20
2023-02-14T13:34:12.053Z,81.64
2023-02-14T13:36:42.824Z,81.02
2023-02-14T13:39:13.102Z,81.10
2023-02-14T13:41:43.917Z,81.37
2023-02-14T13:44:14.480Z,81.42
2023-02-14T13:46:44.592Z,81.06
2023-02-14T13:49:15.027Z,81.21
2023-02-14T13:51:45.236Z,80.59
2023-02-14T13:54:18.006Z,80.16
2023-02-14T13:56:46.801Z,80.67
2023-02-14T13:59:17.140Z,80.89
2023-02-14T14:01:47.464Z,80.16
2023-02-14T14:04:17.820Z,80.73
2023-02-14T14:06:47.881Z,80.31
2023-02-14T14:09:18.432Z,79.85
2023-02-14T14:11:49.172Z,80.18
2023-02-14T14:14:19.370Z,80.23
2023-02-14T14:16:49.529Z,80.29
2023-02-14T14:19:20.191Z,80.10
2023-02-14T14:21:50.771Z,79.84
2023-02-14T14:24:20.878Z,81.62
2023-02-14T14:26:51.548Z,80.37
2023-02-14T14:29:22.071Z,79.88
2023-02-14T14:31:53.004Z,79.39
2023-02-14T14:34:23.671Z,79.89
2023-02-14T14:36:54.380Z,80.02
2023-02-14T14:39:25.191Z,79.45
2023-02-14T14:41:55.305Z,79.24
2023-02-14T14:44:25.414Z,79.37
2023-02-14T14:46:55.605Z,79.37
2023-02-14T14:49:26.158Z,79.03
2023-02-14T14:51:57.095Z,79.79
2023-02-14T14:54:27.018Z,79.56
2023-02-14T14:56:57.379Z,79.67
2023-02-14T14:59:27.688Z,80.51
2023-02-14T15:01:58.251Z,79.48
2023-02-14T15:04:28.653Z,79.64
2023-02-14T15:06:59.293Z,79.84
2023-02-14T15:09:30.033Z,79.90
2023-02-14T15:12:00.987Z,80.06
2023-02-14T15:14:31.582Z,79.88
2023-02-14T15:17:01.709Z,80.05
2023-02-14T15:19:32.437Z,79.70
2023-02-14T15:22:02.444Z,79.82
2023-02-14T15:24:33.149Z,79.94
2023-02-14T15:27:04.095Z,80.02
2023-02-14T15:29:34.930Z,79.44
2023-02-14T15:32:05.229Z,79.74
2023-02-14T15:34:35.756Z,79.65
2023-02-14T15:37:07.046Z,79.74
2023-02-14T15:39:37.335Z,79.83
2023-02-14T15:42:07.911Z,79.84
2023-02-14T15:44:38.679Z,79.60
2023-02-14T15:47:08.690Z,80.09
2023-02-14T15:49:39.213Z,80.12
2023-02-14T15:52:09.626Z,80.00
2023-02-14T15:54:39.979Z,79.99
2023-02-14T15:57:10.395Z,79.97
2023-02-14T15:59:40.851Z,79.96
2023-02-14T16:02:11.858Z,79.83
2023-02-14T16:04:41.689Z,79.81
2023-02-14T16:07:11.812Z,79.97
2023-02-14T16:09:41.951Z,80.04
2023-02-14T16:12:12.548Z,79.95
2023-02-14T16:14:42.440Z,79.93
2023-02-14T16:17:13.392Z,79.67
2023-02-14T16:19:43.903Z,79.65
2023-02-14T16:22:14.641Z,79.81
2023-02-14T16:24:44.799Z,79.83
2023-02-14T16:27:15.329Z,79.82
2023-02-14T16:29:45.522Z,79.77
2023-02-14T16:32:17.377Z,79.75
2023-02-14T16:34:46.767Z,79.75
2023-02-14T16:37:17.027Z,79.83
2023-02-14T16:39:47.120Z,79.90
2023-02-14T16:42:17.722Z,79.92
2023-02-14T16:44:48.395Z,79.89
2023-02-14T16:47:18.662Z,79.78
2023-02-14T16:49:49.305Z,80.02
2023-02-14T16:52:21.809Z,79.87
2023-02-14T16:54:49.972Z,79.89
2023-02-14T16:57:20.051Z,80.04
2023-02-14T16:59:50.765Z,79.65
2023-02-14T17:02:21.023Z,79.85
2023-02-14T17:04:51.604Z,79.97
2023-02-14T17:07:22.530Z,79.81
2023-02-14T17:09:52.964Z,79.94
2023-02-14T17:12:23.647Z,80.23
2023-02-14T17:14:53.922Z,80.15
2023-02-14T17:17:24.417Z,80.85
2023-02-14T17:19:55.238Z,81.20
2023-02-14T17:22:25.409Z,80.94
2023-02-14T17:24:57.063Z,80.01
2023-02-14T17:27:26.810Z,80.24
2023-02-14T17:29:57.394Z,80.95
2023-02-14T17:32:28.331Z,80.83
2023-02-14T17:34:58.582Z,80.63
2023-02-14T17:37:29.079Z,81.90
2023-02-14T17:39:59.706Z,81.78
2023-02-14T17:42:29.890Z,81.98
2023-02-14T17:45:00.606Z,82.18
2023-02-14T17:47:31.084Z,82.93
2023-02-14T17:50:01.176Z,82.84
2023-02-14T17:52:31.323Z,83.08
2023-02-14T17:55:01.518Z,82.91
2023-02-14T17:57:32.207Z,82.81
2023-02-14T18:00:02.433Z,82.59
2023-02-14T18:02:33.077Z,82.50
2023-02-14T18:05:03.642Z,81.80
2023-02-14T18:07:34.384Z,82.68
2023-02-14T18:10:04.796Z,83.04
2023-02-14T18:12:35.550Z,82.85
2023-02-14T18:15:05.958Z,82.31
2023-02-14T18:17:36.712Z,82.98
2023-02-14T18:20:07.379Z,82.79
2023-02-14T18:22:38.061Z,82.38
2023-02-14T18:25:08.171Z,82.45
2023-02-14T18:27:38.471Z,81.71
2023-02-14T18:30:08.916Z,81.90
2023-02-14T18:32:39.297Z,82.32
2023-02-14T18:35:09.428Z,81.55
2023-02-14T18:37:39.846Z,83.23
2023-02-14T18:40:11.115Z,83.21
2023-02-14T18:42:40.727Z,83.30
2023-02-14T18:45:11.105Z,83.20
2023-02-14T18:47:41.675Z,83.08
2023-02-14T18:50:12.320Z,83.33
2023-02-14T18:52:43.129Z,82.78
2023-02-14T18:55:13.526Z,82.83
2023-02-14T18:57:43.713Z,82.94
2023-02-14T19:00:13.748Z,83.07
2023-02-14T19:02:44.410Z,82.41
2023-02-14T19:05:14.331Z,82.57
2023-02-14T19:07:45.197Z,82.64
2023-02-14T19:10:15.257Z,81.99
2023-02-14T19:12:46.068Z,82.54
2023-02-14T19:15:16.328Z,82.23
2023-02-14T19:17:47.143Z,82.03
2023-02-14T19:20:17.634Z,82.70
2023-02-14T19:22:48.550Z,82.27
2023-02-14T19:25:18.776Z,81.56
2023-02-14T19:27:49.401Z,81.85
2023-02-14T19:30:19.156Z,82.00
2023-02-14T19:32:49.657Z,82.28
2023-02-14T19:35:20.363Z,81.88
2023-02-14T19:37:51.303Z,82.91
2023-02-14T19:40:21.119Z,83.10
2023-02-14T19:42:52.127Z,82.24
2023-02-14T19:45:21.975Z,82.61
2023-02-14T19:47:53.102Z,82.95
2023-02-14T19:50:23.356Z,82.73
2023-02-14T19:52:53.483Z,82.75
2023-02-14T19:55:23.625Z,82.78
2023-02-14T19:57:54.187Z,82.86
2023-02-14T20:00:24.883Z,82.98
2023-02-14T20:02:55.187Z,81.88
2023-02-14T20:05:25.866Z,82.28
2023-02-14T20:07:56.650Z,83.05
2023-02-14T20:10:27.473Z,82.40
2023-02-14T20:12:57.633Z,82.00
2023-02-14T20:15:28.040Z,82.13
2023-02-14T20:17:58.471Z,82.11
2023-02-14T20:20:28.810Z,82.41
2023-02-14T20:22:58.938Z,82.08
2023-02-14T20:25:29.608Z,82.57
2023-02-14T20:28:00.247Z,82.99
2023-02-14T20:30:30.573Z,83.51
2023-02-14T20:33:01.346Z,90.30
2023-02-14T20:35:31.521Z,85.84
2023-02-14T20:38:01.678Z,84.90
2023-02-14T20:40:32.412Z,84.57
2023-02-14T20:43:03.259Z,84.30
2023-02-14T20:45:33.252Z,85.11
2023-02-14T20:48:04.118Z,86.64
2023-02-14T20:50:34.113Z,87.16
2023-02-14T20:53:04.757Z,87.67
2023-02-14T20:55:35.375Z,87.39
2023-02-14T20:58:05.454Z,87.23
2023-02-14T21:00:36.034Z,87.22
2023-02-14T21:03:06.044Z,87.42
2023-02-14T21:05:36.793Z,87.85
2023-02-14T21:08:07.120Z,87.59
2023-02-14T21:10:37.361Z,87.74
2023-02-14T21:13:07.504Z,87.56
2023-02-14T21:15:38.331Z,87.64
2023-02-14T21:18:08.674Z,87.43
2023-02-14T21:20:39.526Z,86.65
2023-02-14T21:23:09.836Z,86.44
2023-02-14T21:25:40.172Z,86.29
2023-02-14T21:28:10.908Z,86.81
2023-02-14T21:30:41.825Z,87.09
2023-02-14T21:33:11.866Z,87.34
2023-02-14T21:35:42.537Z,88.11
2023-02-14T21:38:12.932Z,88.38
2023-02-14T21:40:42.947Z,88.00
2023-02-14T21:43:13.144Z,86.99
2023-02-14T21:45:43.805Z,86.46
2023-02-14T21:48:14.575Z,85.97
2023-02-14T21:50:44.649Z,86.05
2023-02-14T21:53:15.258Z,86.30
2023-02-14T21:55:46.014Z,86.64
2023-02-14T21:58:16.449Z,86.98
2023-02-14T22:00:47.183Z,86.91
2023-02-14T22:03:17.806Z,86.90
2023-02-14T22:05:48.338Z,86.71
2023-02-14T22:08:18.568Z,86.63
2023-02-14T22:10:48.771Z,86.68
2023-02-14T22:13:19.111Z,86.67
2023-02-14T22:15:49.470Z,86.58
2023-02-14T22:18:19.849Z,86.08
2023-02-14T22:20:49.837Z,85.89
2023-02-14T22:23:19.897Z,85.86
2023-02-14T22:25:50.656Z,86.27
2023-02-14T22:28:20.988Z,86.50
2023-02-14T22:30:51.542Z,86.64
2023-02-14T22:33:21.996Z,86.93
2023-02-14T22:35:52.049Z,86.90
2023-02-14T22:38:22.874Z,86.81
2023-02-14T22:40:52.990Z,86.93
2023-02-14T22:43:23.412Z,86.91
2023-02-14T22:45:53.715Z,86.78
2023-02-14T22:48:23.742Z,87.18
2023-02-14T22:50:54.241Z,86.72
2023-02-14T22:53:25.004Z,84.97
2023-02-14T22:55:55.733Z,84.85
2023-02-14T22:58:25.765Z,85.46
2023-02-14T23:00:55.879Z,85.87
2023-02-14T23:03:26.201Z,85.12
2023-02-14T23:05:56.830Z,83.92
2023-02-14T23:08:27.167Z,84.30
2023-02-14T23:10:57.268Z,85.19
2023-02-14T23:13:27.769Z,84.52
2023-02-14T23:15:58.248Z,84.22
2023-02-14T23:18:28.561Z,84.69
2023-02-14T23:20:59.103Z,84.08
2023-02-14T23:23:29.212Z,83.55
2023-02-14T23:25:59.606Z,84.47
2023-02-14T23:28:29.896Z,85.17
2023-02-14T23:31:00.644Z,85.88
2023-02-14T23:33:31.106Z,85.82
2023-02-14T23:36:02.085Z,85.63
2023-02-14T23:38:31.758Z,85.84
2023-02-14T23:41:02.070Z,86.32
2023-02-14T23:43:32.959Z,86.16
2023-02-14T23:46:03.649Z,86.63
2023-02-14T23:48:33.533Z,86.86
2023-02-14T23:51:03.626Z,86.87
2023-02-14T23:53:34.203Z,91.59
2023-02-14T23:56:04.548Z,88.36
2023-02-14T23:58:35.193Z,86.81
